Terminal Aerodrome Forecast
Issued by NWS Upton, NY

Home | Current Version | Previous Version | Text Only | Print | Product List | Glossary On
Versions: 1 2 3 4 5 6 7 8 9 10 11 12 13 14 15 16 17 18 19 20 21 22 23 24 25 26 27 28 29 30 31 32 33 34 35 36
000
FTUS41 KOKX 150531
TAFLGA
TAF
KLGA 150531Z 1506/1612 32011KT P6SM SCT250
     FM150700 30007KT P6SM SCT210
     FM151400 27005KT P6SM FEW040 BKN140
     FM151700 24005KT P6SM SCT040 BKN090
     FM152000 26006KT P6SM SCT020 BKN035
      TEMPO 1520/1524 2SM -SN BKN015
     FM160200 26007KT P6SM SCT035 SCT070=

USA.gov is the U.S. government's official web portal to all federal, state and local government web resources and services.